METAR Data
IDs: Format: Raw Decoded Include TAF

Data at: 2103 UTC 22 Sep 2020

KSTE 222055Z AUTO 22006KT 10SM CLR 25/14 A3006 RMK AO2 T02450144
KSTE 222035Z AUTO 24005KT 10SM CLR 25/14 A3007 RMK AO2 T02470143
KSTE 222015Z AUTO 24007KT 10SM CLR 25/14 A3008 RMK AO2 T02450143
KSTE 221955Z AUTO 21006KT 10SM CLR 24/14 A3008 RMK AO2 T02410141
KSTE 221935Z AUTO 25004KT 10SM CLR 24/14 A3009 RMK AO2 T02420143
KSTE 221915Z AUTO 24005KT 10SM CLR 24/14 A3010 RMK AO2 T02390142
KSTE 221855Z AUTO 22005KT 10SM SCT120 24/14 A3010 RMK AO2 T02390140
KSTE 221835Z AUTO 20003KT 10SM BKN120 23/14 A3011 RMK AO2 T02340141
KSTE 221815Z AUTO 00000KT 10SM SCT120 23/14 A3011 RMK AO2 T02280141
KSTE 221755Z AUTO 28003KT 10SM CLR 22/14 A3013 RMK AO2 T02220140 10222 20107
KSTE 221735Z AUTO 27003KT 10SM CLR 22/14 A3013 RMK AO2 T02200141
KSTE 221715Z AUTO 00000KT 10SM SCT120 21/14 A3013 RMK AO2 T02070138
KSTE 221655Z AUTO 25004KT 10SM BKN120 20/14 A3014 RMK AO2 T02040138
KSTE 221635Z AUTO 24003KT 10SM BKN120 21/14 A3015 RMK AO2 T02050135
KSTE 221615Z AUTO 24005KT 10SM CLR 20/13 A3015 RMK AO2 T01960133
KSTE 221555Z AUTO 25006KT 10SM CLR 19/13 A3016 RMK AO2 T01890129
KSTE 221535Z AUTO 27004KT 10SM CLR 19/13 A3016 RMK AO2 T01850126
KSTE 221515Z AUTO 00000KT 10SM CLR 18/12 A3016 RMK AO2 T01790121
KSTE 221455Z AUTO 24004KT 10SM CLR 17/12 A3017 RMK AO2 T01700118
KSTE 221435Z AUTO 23004KT 10SM CLR 16/11 A3017 RMK AO2 T01600112
KSTE 221415Z AUTO 25005KT 10SM CLR 15/11 A3017 RMK AO2 T01540109
KSTE 221355Z AUTO 22004KT 10SM CLR 15/11 A3017 RMK AO2 T01490110
KSTE 221335Z AUTO 21003KT 10SM SCT110 14/11 A3017 RMK AO2 T01370110
KSTE 221315Z AUTO 00000KT 10SM SCT110 13/11 A3017 RMK AO2 T01270108
KSTE 221255Z AUTO 00000KT 10SM CLR 12/11 A3016 RMK AO2 T01220112
KSTE 221235Z AUTO 00000KT 10SM CLR 11/10 A3016 RMK AO2 T01100104
KSTE 221215Z AUTO 00000KT 10SM CLR 11/10 A3016 RMK AO2 T01100103
KSTE 221155Z AUTO 00000KT 10SM CLR 12/10 A3016 RMK AO2 T01160097 10150 20115
KSTE 221135Z AUTO 00000KT 10SM CLR 12/10 A3016 RMK AO2 T01190096
KSTE 221115Z AUTO 22003KT 10SM CLR 12/10 A3016 RMK AO2 T01210096
KSTE 221055Z AUTO 22003KT 10SM CLR 12/10 A3016 RMK AO2 T01210096
KSTE 221035Z AUTO 21003KT 10SM CLR 13/10 A3016 RMK AO2 T01250096
KSTE 221015Z AUTO 20003KT 10SM CLR 12/10 A3015 RMK AO2 T01210095
KSTE 220955Z AUTO 21004KT 10SM CLR 12/10 A3015 RMK AO2 T01230095
KSTE 220935Z AUTO 21004KT 10SM CLR 12/09 A3016 RMK AO2 T01240094
KSTE 220915Z AUTO 21004KT 10SM CLR 13/09 A3016 RMK AO2 T01250093
KSTE 220855Z AUTO 20004KT 10SM CLR 12/09 A3016 RMK AO2 T01220091
KSTE 220835Z AUTO 21005KT 10SM CLR 13/09 A3017 RMK AO2 T01260090
KSTE 220815Z AUTO 20005KT 10SM CLR 13/09 A3017 RMK AO2 T01290088
KSTE 220755Z AUTO 20006KT 10SM CLR 13/09 A3017 RMK AO2 T01340087
KSTE 220735Z AUTO 20007KT 10SM CLR 14/09 A3018 RMK AO2 T01380086
KSTE 220715Z AUTO 20007KT 10SM CLR 14/09 A3018 RMK AO2 T01390085
KSTE 220655Z AUTO 20006KT 10SM CLR 14/09 A3018 RMK AO2 T01400085
KSTE 220635Z AUTO 20006KT 10SM CLR 14/09 A3018 RMK AO2 T01410085
KSTE 220615Z AUTO 20006KT 10SM CLR 15/08 A3018 RMK AO2 T01450082
KSTE 220555Z AUTO 20006KT 10SM CLR 15/08 A3018 RMK AO2 T01490081 10173 20129 402190076
KSTE 220535Z AUTO 20007KT 10SM CLR 15/08 A3018 RMK AO2 T01510080
KSTE 220515Z AUTO 20005KT 10SM CLR 15/08 A3018 RMK AO2 LTG DSNT SE T01520080
KSTE 220455Z AUTO 19006KT 10SM CLR 15/08 A3019 RMK AO2 LTG DSNT E T01540080
KSTE 220435Z AUTO 19005KT 10SM CLR 16/08 A3019 RMK AO2 T01550080
KSTE 220415Z AUTO 18005KT 10SM CLR 16/08 A3019 RMK AO2 T01550081
KSTE 220355Z AUTO 19005KT 10SM CLR 16/08 A3019 RMK AO2 LTG DSNT E T01550081
KSTE 220335Z AUTO 19005KT 10SM CLR 15/08 A3019 RMK AO2 T01540083
KSTE 220315Z AUTO 18005KT 10SM CLR 15/09 A3019 RMK AO2 T01500085
KSTE 220255Z AUTO 19003KT 10SM CLR 15/09 A3019 RMK AO2 T01460087
KSTE 220235Z AUTO 18004KT 10SM CLR 15/08 A3019 RMK AO2 T01490083
KSTE 220215Z AUTO 19003KT 10SM SCT110 15/08 A3019 RMK AO2 T01530084
KSTE 220155Z AUTO 19006KT 10SM BKN110 16/08 A3019 RMK AO2 T01610084
KSTE 220135Z AUTO 17004KT 10SM OVC120 17/09 A3018 RMK AO2 T01660085
KSTE 220115Z AUTO 15006KT 10SM BKN120 16/09 A3018 RMK AO2 T01610085
KSTE 220055Z AUTO 15006KT 10SM SCT120 15/09 A3019 RMK AO2 T01480086
KSTE 220035Z AUTO 14004KT 10SM CLR 13/08 A3019 RMK AO2 T01340079
KSTE 220015Z AUTO 16003KT 10SM CLR 16/08 A3019 RMK AO2 LTG DSNT W T01560077
KSTE 212355Z AUTO 00000KT 10SM CLR 17/08 A3020 RMK AO2 LTG DSNT NW T01720079 10219 20172
KSTE 212335Z AUTO 20005KT 10SM CLR 18/08 A3019 RMK AO2 T01800080
KSTE 212315Z AUTO 19007KT 10SM CLR 19/08 A3019 RMK AO2 T01900080
KSTE 212255Z AUTO 19009G15KT 10SM CLR 20/08 A3018 RMK AO2 T01980081
KSTE 212235Z AUTO 19010G14KT 10SM CLR 20/09 A3018 RMK AO2 LTG DSNT NW T02020085
KSTE 212215Z AUTO 19012G19KT 10SM CLR 20/09 A3018 RMK AO2 T02030085
KSTE 212155Z AUTO 18013G18KT 10SM CLR 21/09 A3018 RMK AO2 T02060091
KSTE 212135Z AUTO 18011G18KT 10SM CLR 21/09 A3018 RMK AO2 LTG DSNT NW T02050091
KSTE 212115Z AUTO 19014G19KT 10SM CLR 21/09 A3018 RMK AO2 LTG DSNT W AND NW T02100094
KSTE 212055Z AUTO 20011G18KT 10SM CLR 21/10 A3019 RMK AO2 LTG DSNT W T02140097
KSTE 212035Z AUTO 19010KT 10SM CLR 22/10 A3019 RMK AO2 T02150097
KSTE 212015Z AUTO 20015G18KT 10SM CLR 22/10 A3020 RMK AO2 T02180096
KSTE 211955Z AUTO 20015G20KT 10SM CLR 22/10 A3020 RMK AO2 T02180095
KSTE 211935Z AUTO 19012G16KT 10SM CLR 22/09 A3021 RMK AO2 T02150090
KSTE 211915Z AUTO 20015G19KT 10SM CLR 22/09 A3022 RMK AO2 T02160091
KSTE 211855Z AUTO 18013KT 10SM CLR 21/09 A3022 RMK AO2 T02110085
KSTE 211835Z AUTO 18011G16KT 10SM CLR 21/08 A3023 RMK AO2 T02100083
KSTE 211815Z AUTO 19013KT 10SM CLR 20/08 A3025 RMK AO2 T02010075
KSTE 211755Z AUTO 20013G17KT 10SM CLR 19/07 A3026 RMK AO2 T01940070 10200 20076
KSTE 211735Z AUTO 18013G16KT 10SM CLR 20/07 A3026 RMK AO2 T01990066
KSTE 211715Z AUTO 21014G19KT 10SM CLR 19/06 A3027 RMK AO2 T01930063
KSTE 211655Z AUTO 19012KT 10SM CLR 19/06 A3028 RMK AO2 T01860060
KSTE 211635Z AUTO 21011G15KT 10SM CLR 18/06 A3029 RMK AO2 T01810056
KSTE 211615Z AUTO 20010KT 10SM CLR 17/05 A3029 RMK AO2 T01740054
KSTE 211555Z AUTO 19011G15KT 10SM CLR 16/05 A3030 RMK AO2 T01610047
KSTE 211535Z AUTO 20011G16KT 10SM CLR 16/05 A3030 RMK AO2 T01610051
KSTE 211515Z AUTO 19010G14KT 10SM CLR 15/05 A3031 RMK AO2 T01460047
KSTE 211455Z AUTO 19008KT 10SM CLR 14/05 A3031 RMK AO2 T01420048
KSTE 211435Z AUTO 20008KT 10SM CLR 13/05 A3031 RMK AO2 T01320046
KSTE 211415Z AUTO 20007KT 10SM CLR 13/05 A3031 RMK AO2 T01290046
KSTE 211355Z AUTO 20009KT 10SM CLR 13/04 A3031 RMK AO2 T01250041
KSTE 211335Z AUTO 19007KT 10SM CLR 12/04 A3031 RMK AO2 T01210043
KSTE 211315Z AUTO 19006KT 10SM CLR 11/04 A3031 RMK AO2 T01100043
KSTE 211255Z AUTO 17007KT 10SM CLR 10/04 A3031 RMK AO2 T01010043
KSTE 211235Z AUTO 18005KT 10SM CLR 08/05 A3031 RMK AO2 T00840046
KSTE 211215Z AUTO 19003KT 10SM CLR 08/04 A3031 RMK AO2 T00800041
KSTE 211155Z AUTO 00000KT 10SM CLR 08/04 A3031 RMK AO2 T00780041 10111 20078
KSTE 211135Z AUTO 00000KT 10SM CLR 08/04 A3031 RMK AO2 T00790042
KSTE 211115Z AUTO 17003KT 10SM CLR 08/04 A3031 RMK AO2 T00820042
KSTE 211055Z AUTO 17004KT 10SM CLR 09/04 A3031 RMK AO2 T00870041
KSTE 211035Z AUTO 18003KT 10SM CLR 09/04 A3031 RMK AO2 T00940042
KSTE 211015Z AUTO 18003KT 10SM CLR 10/04 A3030 RMK AO2 T00960043
KSTE 210955Z AUTO 18004KT 10SM CLR 10/05 A3030 RMK AO2 T00980045
KSTE 210935Z AUTO 19003KT 10SM CLR 10/05 A3030 RMK AO2 T01010047
KSTE 210915Z AUTO 17004KT 10SM CLR 10/05 A3030 RMK AO2 T00960047